createdAt,value
2022-08-19T00:00:00.083Z,67.96
2022-08-19T00:01:01.811Z,68.24
2022-08-19T00:02:07.264Z,68.34
2022-08-19T00:03:09.061Z,68.44
2022-08-19T00:04:16.006Z,68.34
2022-08-19T00:05:18.757Z,68.30
2022-08-19T00:06:21.295Z,68.33
2022-08-19T00:07:22.934Z,68.18
2022-08-19T00:08:25.683Z,68.30
2022-08-19T00:09:28.543Z,68.39
2022-08-19T00:10:31.296Z,68.42
2022-08-19T00:11:33.072Z,68.25
2022-08-19T00:12:37.292Z,68.32
2022-08-19T00:13:50.849Z,68.34
2022-08-19T00:14:54.919Z,68.21
2022-08-19T00:15:56.873Z,68.57
2022-08-19T00:16:59.612Z,68.55
2022-08-19T00:18:01.204Z,68.33
2022-08-19T00:19:03.885Z,68.61
2022-08-19T00:20:08.669Z,68.78
2022-08-19T00:21:11.264Z,68.62
2022-08-19T00:22:12.881Z,68.71
2022-08-19T00:23:15.980Z,68.72
2022-08-19T00:24:17.652Z,68.35
2022-08-19T00:25:30.240Z,68.75
2022-08-19T00:26:32.367Z,68.40
2022-08-19T00:27:35.566Z,68.68
2022-08-19T00:28:38.173Z,68.93
2022-08-19T00:29:40.115Z,68.70
2022-08-19T00:30:42.861Z,68.84
2022-08-19T00:31:45.852Z,68.68
2022-08-19T00:32:48.827Z,68.83
2022-08-19T00:33:51.314Z,68.82
2022-08-19T00:34:54.252Z,68.94
2022-08-19T00:35:57.426Z,68.63
2022-08-19T00:37:00.540Z,68.63
2022-08-19T00:38:03.269Z,68.78
2022-08-19T00:39:05.047Z,68.68
2022-08-19T00:40:09.533Z,68.65
2022-08-19T00:41:13.374Z,68.84
2022-08-19T00:42:16.461Z,68.77
2022-08-19T00:43:20.933Z,68.84
2022-08-19T00:44:26.716Z,68.92
2022-08-19T00:45:32.649Z,68.79
2022-08-19T00:46:41.477Z,68.90
2022-08-19T00:47:43.594Z,68.72
2022-08-19T00:48:46.220Z,68.96
2022-08-19T00:49:52.461Z,68.83
2022-08-19T00:50:56.357Z,68.92
2022-08-19T00:52:05.128Z,68.75
2022-08-19T00:53:07.636Z,69.20
2022-08-19T00:54:11.082Z,68.85
2022-08-19T00:55:16.832Z,68.97
2022-08-19T00:56:19.740Z,68.85
2022-08-19T00:57:27.927Z,68.93
2022-08-19T00:58:34.239Z,68.94
2022-08-19T01:00:01.923Z,68.61
2022-08-19T01:01:02.508Z,69.00
2022-08-19T01:02:04.828Z,69.03
2022-08-19T01:03:09.707Z,68.82
2022-08-19T01:04:11.479Z,69.16
2022-08-19T01:05:19.368Z,69.24
2022-08-19T01:06:21.657Z,69.19
2022-08-19T01:07:25.821Z,69.16
2022-08-19T01:08:27.531Z,69.32
2022-08-19T01:09:30.571Z,69.43
2022-08-19T01:10:38.284Z,69.56
2022-08-19T01:11:45.699Z,69.28
2022-08-19T01:12:48.890Z,69.54
2022-08-19T01:13:53.728Z,69.61
2022-08-19T01:14:56.373Z,69.59
2022-08-19T01:16:02.237Z,69.57
2022-08-19T01:17:04.737Z,69.61
2022-08-19T01:18:11.568Z,69.56
2022-08-19T01:19:21.763Z,69.54
2022-08-19T01:20:25.853Z,69.67
2022-08-19T01:21:32.496Z,69.99
2022-08-19T01:22:39.708Z,69.87
2022-08-19T01:23:44.341Z,69.89
2022-08-19T01:24:49.624Z,69.81
2022-08-19T01:25:54.600Z,69.71
2022-08-19T01:26:57.553Z,70.03
2022-08-19T01:28:10.541Z,69.85
2022-08-19T01:29:14.775Z,69.69
2022-08-19T01:30:23.418Z,69.94
2022-08-19T01:31:30.312Z,70.06
2022-08-19T01:32:35.822Z,70.04
2022-08-19T01:33:37.508Z,70.13
2022-08-19T01:34:40.519Z,70.21
2022-08-19T01:35:42.626Z,70.00
2022-08-19T01:36:48.118Z,70.20
2022-08-19T01:37:53.734Z,70.43
2022-08-19T01:38:56.992Z,70.45
2022-08-19T01:39:58.758Z,70.35
2022-08-19T01:41:01.422Z,70.34
2022-08-19T01:42:13.327Z,70.30
2022-08-19T01:43:16.032Z,70.47
2022-08-19T01:44:21.258Z,70.54
2022-08-19T01:45:25.120Z,70.35
2022-08-19T01:46:29.395Z,70.30
2022-08-19T01:47:31.010Z,70.46
2022-08-19T01:48:39.401Z,70.43
2022-08-19T01:49:41.176Z,70.32
2022-08-19T01:50:44.508Z,70.55
2022-08-19T01:51:47.051Z,70.49
2022-08-19T01:52:49.937Z,70.73
2022-08-19T01:54:06.707Z,70.56
2022-08-19T01:55:12.207Z,70.53
2022-08-19T01:56:14.876Z,70.75
2022-08-19T01:57:16.840Z,70.72
2022-08-19T01:58:24.121Z,70.81
2022-08-19T01:59:25.859Z,70.79
2022-08-19T02:00:31.673Z,71.02
2022-08-19T02:01:33.558Z,70.76
2022-08-19T02:02:36.260Z,70.98
2022-08-19T02:03:37.936Z,70.89
2022-08-19T02:04:40.612Z,71.05
2022-08-19T02:05:43.203Z,71.17
2022-08-19T02:06:45.760Z,71.18
2022-08-19T02:07:47.485Z,71.05
2022-08-19T02:08:50.135Z,71.09
2022-08-19T02:09:55.823Z,71.05
2022-08-19T02:10:59.014Z,71.12
2022-08-19T02:12:00.867Z,71.05
2022-08-19T02:13:04.104Z,71.04
2022-08-19T02:14:07.889Z,71.37
2022-08-19T02:15:11.325Z,71.24
2022-08-19T02:16:12.903Z,71.08
2022-08-19T02:17:15.749Z,71.51
2022-08-19T02:18:17.883Z,71.52
2022-08-19T02:19:20.445Z,71.45
2022-08-19T02:20:23.396Z,71.19
2022-08-19T02:21:26.404Z,71.50
2022-08-19T02:22:28.265Z,71.52
2022-08-19T02:23:33.331Z,71.35
2022-08-19T02:24:35.027Z,71.50
2022-08-19T02:25:39.407Z,71.47
2022-08-19T02:26:41.095Z,71.55
2022-08-19T02:27:44.668Z,71.54
2022-08-19T02:28:46.991Z,71.64
2022-08-19T02:29:51.016Z,71.52
2022-08-19T02:30:52.926Z,71.91
2022-08-19T02:31:55.551Z,71.60
2022-08-19T02:32:57.553Z,71.63
2022-08-19T02:34:00.985Z,71.85
2022-08-19T02:35:04.327Z,71.71
2022-08-19T02:36:16.660Z,71.80
2022-08-19T02:37:41.313Z,71.81
2022-08-19T02:38:47.677Z,71.96
2022-08-19T02:39:57.294Z,71.98
2022-08-19T02:41:05.751Z,71.93
2022-08-19T02:42:08.750Z,72.26
2022-08-19T02:43:10.640Z,72.39
2022-08-19T02:44:29.882Z,72.21
2022-08-19T02:45:40.508Z,72.38
2022-08-19T02:46:45.646Z,72.40
2022-08-19T02:47:47.375Z,72.15
2022-08-19T02:48:50.434Z,72.54
2022-08-19T02:49:52.086Z,72.60
2022-08-19T02:50:56.693Z,72.31
2022-08-19T02:51:58.390Z,72.52
2022-08-19T02:53:01.086Z,72.36
2022-08-19T02:54:05.492Z,72.34
2022-08-19T02:55:08.361Z,72.47
2022-08-19T02:56:12.277Z,72.53
2022-08-19T02:57:14.063Z,72.82
2022-08-19T02:58:17.819Z,72.44
2022-08-19T02:59:22.952Z,72.53
2022-08-19T03:00:25.973Z,72.51
2022-08-19T03:01:31.297Z,72.88
2022-08-19T03:02:34.122Z,72.74
2022-08-19T03:03:35.704Z,73.06
2022-08-19T03:04:38.353Z,72.84
2022-08-19T03:05:48.263Z,73.03
2022-08-19T03:07:10.724Z,73.05
2022-08-19T03:08:22.873Z,73.03
2022-08-19T03:09:24.502Z,73.16
2022-08-19T03:10:27.183Z,73.08
2022-08-19T03:11:31.835Z,72.91
2022-08-19T03:12:38.110Z,73.00
2022-08-19T03:13:39.691Z,72.95
2022-08-19T03:14:42.324Z,73.16
2022-08-19T03:15:46.898Z,73.05
2022-08-19T03:16:53.691Z,73.43
2022-08-19T03:17:55.323Z,73.25
2022-08-19T03:19:01.021Z,73.36
2022-08-19T03:20:04.117Z,73.48
2022-08-19T03:21:12.520Z,73.42
2022-08-19T03:22:15.020Z,73.27
2022-08-19T03:23:18.758Z,73.28
2022-08-19T03:24:21.157Z,73.69
2022-08-19T03:25:23.818Z,73.64
2022-08-19T03:26:25.636Z,73.42
2022-08-19T03:27:34.890Z,73.62
2022-08-19T03:28:37.632Z,73.66
2022-08-19T03:29:43.352Z,73.96
2022-08-19T03:30:57.587Z,74.14
2022-08-19T03:32:01.447Z,73.80
2022-08-19T03:33:04.301Z,74.14
2022-08-19T03:34:08.212Z,74.19
2022-08-19T03:35:17.896Z,74.14
2022-08-19T03:36:24.851Z,74.37
2022-08-19T03:37:29.434Z,74.34
2022-08-19T03:38:33.086Z,74.41
2022-08-19T03:39:37.613Z,74.29
2022-08-19T03:40:43.860Z,74.43
2022-08-19T03:42:31.916Z,74.16
2022-08-19T03:43:15.859Z,74.63
2022-08-19T03:44:21.466Z,74.39
2022-08-19T03:45:24.110Z,74.44
2022-08-19T03:46:28.277Z,74.50
2022-08-19T03:47:31.361Z,74.76
2022-08-19T03:48:34.140Z,74.61
2022-08-19T03:49:37.469Z,74.54
2022-08-19T03:50:39.773Z,74.80
2022-08-19T03:51:43.940Z,75.09
2022-08-19T03:52:49.421Z,74.90
2022-08-19T03:53:52.909Z,75.12
2022-08-19T03:54:55.580Z,75.03
2022-08-19T03:55:58.897Z,75.13
2022-08-19T03:57:01.560Z,75.23
2022-08-19T03:58:03.195Z,75.17
2022-08-19T03:59:09.160Z,75.38
2022-08-19T04:00:13.805Z,75.21
2022-08-19T04:01:19.555Z,75.37
2022-08-19T04:02:22.358Z,75.57
2022-08-19T04:03:23.987Z,75.52
2022-08-19T04:04:29.270Z,75.21
2022-08-19T04:05:31.108Z,75.35
2022-08-19T04:06:36.005Z,75.28
2022-08-19T04:07:41.694Z,75.66
2022-08-19T04:08:46.355Z,75.69
2022-08-19T04:09:48.294Z,75.81
2022-08-19T04:10:51.409Z,75.49
2022-08-19T04:11:56.500Z,75.83
2022-08-19T04:12:59.418Z,75.60
2022-08-19T04:14:01.767Z,75.89
2022-08-19T04:15:09.516Z,75.83
2022-08-19T04:16:11.940Z,76.02
2022-08-19T04:17:14.970Z,75.78
2022-08-19T04:18:16.648Z,75.78
2022-08-19T04:19:20.699Z,76.09
2022-08-19T04:20:22.520Z,76.05
2022-08-19T04:21:27.345Z,75.93
2022-08-19T04:22:29.031Z,75.92
2022-08-19T04:23:32.082Z,75.67
2022-08-19T04:24:35.066Z,75.69
2022-08-19T04:25:39.522Z,75.90
2022-08-19T04:26:41.932Z,75.85
2022-08-19T04:27:47.191Z,76.15
2022-08-19T04:28:49.995Z,76.24
2022-08-19T04:29:53.383Z,76.14
2022-08-19T04:30:56.792Z,75.96
2022-08-19T04:32:00.475Z,76.05
2022-08-19T04:33:12.724Z,76.18
2022-08-19T04:34:18.450Z,75.88
2022-08-19T04:35:23.137Z,76.17
2022-08-19T04:36:29.826Z,76.43
2022-08-19T04:37:35.078Z,76.48
2022-08-19T04:38:38.204Z,76.49
2022-08-19T04:40:02.487Z,76.54
2022-08-19T04:41:23.966Z,76.11
2022-08-19T04:42:40.895Z,76.40
2022-08-19T04:43:47.354Z,76.28
2022-08-19T04:44:49.619Z,75.96
2022-08-19T04:45:56.935Z,76.08
2022-08-19T04:47:11.435Z,76.38
2022-08-19T04:48:27.163Z,75.83
2022-08-19T04:49:29.845Z,75.96
2022-08-19T04:50:32.473Z,76.32
2022-08-19T04:51:35.824Z,76.19
2022-08-19T04:52:43.538Z,76.30
2022-08-19T04:53:46.905Z,76.21
2022-08-19T04:54:49.052Z,76.17
2022-08-19T04:55:52.411Z,76.29
2022-08-19T04:56:54.543Z,76.55
2022-08-19T04:57:57.193Z,76.62
2022-08-19T04:59:03.974Z,76.17
2022-08-19T05:00:07.866Z,76.41
2022-08-19T05:01:12.835Z,76.64
2022-08-19T05:02:16.885Z,76.18
2022-08-19T05:03:19.076Z,76.52
2022-08-19T05:04:22.062Z,76.77
2022-08-19T05:05:26.371Z,76.61
2022-08-19T05:06:33.667Z,76.63
2022-08-19T05:07:36.060Z,76.29
2022-08-19T05:08:42.952Z,76.69
2022-08-19T05:09:57.955Z,76.29
2022-08-19T05:11:01.043Z,76.60
2022-08-19T05:12:05.068Z,76.42
2022-08-19T05:13:06.664Z,76.55
2022-08-19T05:14:10.755Z,76.79
2022-08-19T05:15:12.597Z,76.31
2022-08-19T05:16:16.883Z,76.58
2022-08-19T05:17:28.423Z,76.41
2022-08-19T05:18:49.360Z,76.65
2022-08-19T05:20:09.559Z,76.59
2022-08-19T05:21:31.550Z,76.45
2022-08-19T05:22:35.465Z,76.62
2022-08-19T05:23:38.119Z,76.64
2022-08-19T05:25:02.572Z,76.60
2022-08-19T05:26:05.306Z,76.39
2022-08-19T05:27:07.072Z,76.87
2022-08-19T05:28:09.625Z,76.71
2022-08-19T05:29:11.206Z,76.68
2022-08-19T05:30:14.678Z,76.48
2022-08-19T05:31:16.274Z,76.34
2022-08-19T05:32:18.918Z,76.71
2022-08-19T05:33:22.465Z,76.65
2022-08-19T05:34:27.035Z,76.69
2022-08-19T05:35:29.343Z,76.81
2022-08-19T05:36:40.845Z,76.42
2022-08-19T05:37:45.547Z,76.80
2022-08-19T05:38:48.390Z,76.37
2022-08-19T05:39:53.383Z,76.72
2022-08-19T05:40:55.371Z,76.29
2022-08-19T05:41:59.914Z,76.43
2022-08-19T05:43:01.625Z,76.43
2022-08-19T05:44:09.987Z,76.31
2022-08-19T05:45:12.865Z,76.06
2022-08-19T05:46:19.585Z,76.17
2022-08-19T05:47:30.283Z,76.00
2022-08-19T05:48:33.594Z,75.89
2022-08-19T05:49:37.738Z,76.14
2022-08-19T05:50:40.393Z,75.81
2022-08-19T05:51:43.904Z,76.26
2022-08-19T05:52:50.670Z,75.79
2022-08-19T05:53:53.907Z,75.54
2022-08-19T05:54:57.143Z,75.60
2022-08-19T05:55:59.032Z,75.42
2022-08-19T05:57:03.026Z,75.50
2022-08-19T05:58:04.856Z,75.14
2022-08-19T05:59:09.996Z,75.17
2022-08-19T06:00:13.256Z,74.79
2022-08-19T06:01:20.006Z,74.74
2022-08-19T06:02:21.887Z,75.06
2022-08-19T06:03:25.089Z,74.76
2022-08-19T06:04:28.143Z,74.85
2022-08-19T06:05:31.168Z,74.71
2022-08-19T06:06:35.065Z,74.71
2022-08-19T06:07:38.152Z,74.71
2022-08-19T06:08:40.667Z,74.71
2022-08-19T06:09:43.707Z,74.75
2022-08-19T06:11:15.116Z,74.40
2022-08-19T06:12:17.689Z,74.54
2022-08-19T06:13:20.982Z,74.51
2022-08-19T06:14:27.767Z,74.46
2022-08-19T06:15:30.148Z,74.00
2022-08-19T06:16:36.097Z,74.12
2022-08-19T06:17:39.195Z,74.09
2022-08-19T06:18:40.853Z,74.05
2022-08-19T06:19:44.821Z,73.95
2022-08-19T06:20:55.995Z,73.87
2022-08-19T06:22:00.932Z,74.08
2022-08-19T06:23:04.641Z,74.14
2022-08-19T06:24:08.623Z,73.93
2022-08-19T06:25:11.354Z,74.09
2022-08-19T06:26:14.338Z,74.20
2022-08-19T06:27:17.284Z,74.04
2022-08-19T06:28:19.202Z,73.81
2022-08-19T06:29:24.695Z,73.96
2022-08-19T06:30:26.477Z,73.79
2022-08-19T06:31:30.336Z,73.63
2022-08-19T06:32:32.633Z,73.59
2022-08-19T06:33:35.220Z,73.24
2022-08-19T06:34:38.121Z,73.67
2022-08-19T06:35:42.351Z,73.06
2022-08-19T06:36:47.786Z,72.89
2022-08-19T06:37:49.461Z,72.81
2022-08-19T06:38:52.070Z,72.42
2022-08-19T06:39:54.067Z,72.28
2022-08-19T06:41:02.603Z,72.15
2022-08-19T06:42:17.069Z,72.12
2022-08-19T06:43:19.411Z,72.01
2022-08-19T06:44:25.006Z,72.25
2022-08-19T06:45:34.793Z,72.07
2022-08-19T06:46:38.108Z,72.04
2022-08-19T06:47:44.762Z,71.79
2022-08-19T06:48:47.168Z,71.57
2022-08-19T06:49:49.745Z,71.46
2022-08-19T06:50:52.951Z,71.47
2022-08-19T06:51:57.685Z,71.25
2022-08-19T06:53:04.398Z,71.33
2022-08-19T06:54:07.433Z,71.25
2022-08-19T06:55:22.423Z,71.21
2022-08-19T06:56:31.953Z,71.33
2022-08-19T06:57:36.020Z,71.28
2022-08-19T06:58:37.642Z,71.05
2022-08-19T06:59:40.358Z,71.05
2022-08-19T07:00:42.012Z,71.08
2022-08-19T07:01:47.869Z,71.02
2022-08-19T07:02:56.169Z,70.80
2022-08-19T07:04:03.271Z,71.05
2022-08-19T07:05:07.683Z,71.02
2022-08-19T07:06:32.502Z,70.98
2022-08-19T07:07:36.608Z,71.01
2022-08-19T07:08:41.763Z,71.26
2022-08-19T07:09:52.174Z,70.99
2022-08-19T07:11:02.782Z,71.34
2022-08-19T07:12:14.371Z,71.33
2022-08-19T07:13:16.160Z,71.21
2022-08-19T07:14:21.204Z,70.82
2022-08-19T07:15:24.106Z,70.97
2022-08-19T07:16:29.364Z,71.04
2022-08-19T07:17:31.757Z,71.15
2022-08-19T07:18:38.288Z,70.78
2022-08-19T07:19:43.313Z,70.92
2022-08-19T07:20:45.716Z,70.73
2022-08-19T07:21:51.900Z,70.55
2022-08-19T07:22:54.157Z,70.39
2022-08-19T07:23:58.788Z,70.44
2022-08-19T07:25:01.381Z,70.16
2022-08-19T07:26:09.293Z,70.11
2022-08-19T07:27:13.826Z,70.07
2022-08-19T07:28:24.425Z,70.16
2022-08-19T07:29:29.077Z,70.03
2022-08-19T07:30:31.830Z,69.97
2022-08-19T07:31:37.715Z,69.85
2022-08-19T07:32:40.487Z,70.03
2022-08-19T07:33:43.892Z,70.05
2022-08-19T07:34:46.963Z,69.92
2022-08-19T07:35:48.560Z,69.64
2022-08-19T07:36:52.565Z,69.58
2022-08-19T07:37:54.399Z,69.45
2022-08-19T07:38:57.237Z,69.33
2022-08-19T07:39:59.860Z,69.75
2022-08-19T07:41:02.247Z,69.32
2022-08-19T07:42:09.772Z,69.29
2022-08-19T07:43:14.236Z,69.15
2022-08-19T07:44:22.008Z,68.89
2022-08-19T07:45:25.086Z,69.30
2022-08-19T07:46:31.998Z,68.75
2022-08-19T07:47:50.025Z,68.50
2022-08-19T07:48:54.061Z,68.96
2022-08-19T07:49:55.686Z,68.88
2022-08-19T07:51:02.716Z,68.31
2022-08-19T07:52:10.385Z,68.41
2022-08-19T07:53:13.276Z,68.10
2022-08-19T07:54:16.092Z,68.21
2022-08-19T07:55:41.446Z,67.85
2022-08-19T07:56:43.846Z,67.68
2022-08-19T07:57:45.649Z,67.65
2022-08-19T07:58:51.098Z,67.29
2022-08-19T07:59:52.781Z,67.13
2022-08-19T08:00:55.630Z,67.17
2022-08-19T08:02:00.479Z,67.52
2022-08-19T08:03:02.236Z,67.63
2022-08-19T08:04:22.682Z,67.54
2022-08-19T08:05:44.239Z,67.38
2022-08-19T08:07:14.438Z,67.51
2022-08-19T08:08:34.634Z,67.68
2022-08-19T08:09:41.127Z,68.02
2022-08-19T08:10:44.415Z,67.97
2022-08-19T08:12:02.004Z,67.83
2022-08-19T08:13:10.310Z,67.80
2022-08-19T08:14:29.504Z,67.94
2022-08-19T08:15:42.136Z,67.69
2022-08-19T08:16:46.992Z,67.74
2022-08-19T08:17:51.676Z,67.54
2022-08-19T08:18:53.479Z,67.58
2022-08-19T08:19:58.339Z,68.06
2022-08-19T08:21:00.051Z,67.85
2022-08-19T08:22:07.275Z,67.38
2022-08-19T08:23:25.904Z,67.22
2022-08-19T08:24:31.508Z,67.32
2022-08-19T08:25:42.034Z,67.56
2022-08-19T08:26:46.863Z,67.32
2022-08-19T08:27:53.883Z,67.37
2022-08-19T08:28:58.494Z,67.03
2022-08-19T08:30:03.036Z,66.74
2022-08-19T08:31:09.715Z,66.79
2022-08-19T08:32:14.202Z,66.81
2022-08-19T08:33:30.001Z,66.44
2022-08-19T08:34:37.920Z,66.91
2022-08-19T08:35:43.328Z,66.42
2022-08-19T08:36:47.063Z,66.38
2022-08-19T08:37:53.638Z,65.67
2022-08-19T08:40:00.086Z,64.85
2022-08-19T08:41:11.125Z,64.82
2022-08-19T08:42:21.596Z,64.52
2022-08-19T08:43:30.629Z,63.64
2022-08-19T08:44:51.545Z,63.73
2022-08-19T08:46:00.307Z,63.96
2022-08-19T08:47:07.893Z,63.54
2022-08-19T08:48:22.276Z,63.34
2022-08-19T08:49:35.411Z,63.26
2022-08-19T08:50:43.092Z,63.78
2022-08-19T08:51:59.374Z,63.61
2022-08-19T08:53:07.832Z,63.08
2022-08-19T08:54:13.859Z,62.93
2022-08-19T08:55:21.210Z,63.09
2022-08-19T08:56:24.831Z,62.89
2022-08-19T08:57:33.758Z,62.75
2022-08-19T08:58:59.024Z,62.08
2022-08-19T09:00:05.076Z,61.90
2022-08-19T09:01:12.229Z,61.78
2022-08-19T09:02:14.825Z,61.38
2022-08-19T09:03:21.763Z,61.16
2022-08-19T09:04:25.263Z,61.14
2022-08-19T09:05:42.112Z,61.00
2022-08-19T09:06:56.733Z,61.03
2022-08-19T09:08:06.833Z,61.21
2022-08-19T09:09:15.234Z,61.10
2022-08-19T09:10:32.600Z,61.05
2022-08-19T09:11:47.590Z,60.69
2022-08-19T09:13:01.389Z,61.08
2022-08-19T09:14:29.269Z,60.70
2022-08-19T09:15:40.328Z,60.47
2022-08-19T09:16:41.987Z,60.48
2022-08-19T09:17:45.544Z,60.51
2022-08-19T09:18:54.440Z,60.26
2022-08-19T09:19:59.437Z,60.02
2022-08-19T09:21:05.117Z,59.40
2022-08-19T09:22:08.527Z,59.41
2022-08-19T09:23:14.676Z,59.16
2022-08-19T09:24:16.275Z,58.19
2022-08-19T09:25:24.732Z,58.67
2022-08-19T09:26:47.360Z,58.12
2022-08-19T09:27:52.976Z,58.54
2022-08-19T09:28:55.728Z,58.27
2022-08-19T09:30:01.190Z,58.34
2022-08-19T09:31:03.054Z,58.62
2022-08-19T09:32:06.208Z,58.31
2022-08-19T09:33:28.881Z,58.10
2022-08-19T09:34:38.059Z,58.44
2022-08-19T09:35:50.194Z,58.30
2022-08-19T09:36:56.441Z,58.92
2022-08-19T09:38:00.607Z,58.82
2022-08-19T09:39:04.909Z,58.66
2022-08-19T09:40:20.246Z,58.06
2022-08-19T09:41:24.179Z,58.35
2022-08-19T09:42:30.490Z,58.33
2022-08-19T09:43:44.680Z,58.20
2022-08-19T09:44:50.579Z,58.67
2022-08-19T09:45:53.405Z,57.83
2022-08-19T09:46:57.010Z,58.54
2022-08-19T09:47:58.640Z,57.70
2022-08-19T09:49:07.102Z,58.26
2022-08-19T09:50:12.248Z,58.02
2022-08-19T09:51:24.203Z,57.97
2022-08-19T09:52:26.091Z,57.67
2022-08-19T09:53:35.624Z,57.47
2022-08-19T09:54:40.364Z,57.77
2022-08-19T09:55:46.881Z,57.34
2022-08-19T09:56:48.799Z,56.96
2022-08-19T09:57:51.567Z,57.06
2022-08-19T09:58:53.248Z,57.17
2022-08-19T09:59:56.085Z,56.86
2022-08-19T10:00:59.278Z,56.41
2022-08-19T10:02:03.695Z,56.33
2022-08-19T10:03:12.605Z,56.18
2022-08-19T10:04:20.414Z,56.64
2022-08-19T10:05:42.695Z,56.07
2022-08-19T10:06:46.718Z,56.33
2022-08-19T10:07:49.118Z,56.63
2022-08-19T10:08:53.015Z,56.67
2022-08-19T10:09:56.382Z,56.07
2022-08-19T10:10:59.363Z,56.20
2022-08-19T10:12:06.179Z,55.77
2022-08-19T10:13:08.911Z,55.85
2022-08-19T10:14:11.543Z,55.61
2022-08-19T10:15:13.890Z,55.78
2022-08-19T10:16:19.756Z,55.56
2022-08-19T10:17:26.412Z,55.80
2022-08-19T10:18:30.094Z,56.02
2022-08-19T10:19:36.757Z,55.92
2022-08-19T10:20:39.322Z,55.58
2022-08-19T10:21:41.299Z,55.18
2022-08-19T10:22:44.508Z,55.75
2022-08-19T10:23:49.690Z,55.55
2022-08-19T10:24:53.354Z,55.73
2022-08-19T10:26:00.762Z,55.13
2022-08-19T10:27:04.585Z,55.16
2022-08-19T10:28:10.552Z,55.27
2022-08-19T10:29:13.397Z,54.96
2022-08-19T10:30:34.001Z,55.49
2022-08-19T10:32:00.050Z,55.35
2022-08-19T10:32:59.206Z,55.05
2022-08-19T10:34:02.603Z,54.92
2022-08-19T10:35:08.834Z,54.96
2022-08-19T10:36:15.915Z,55.07
2022-08-19T10:37:23.725Z,54.24
2022-08-19T10:38:33.002Z,54.49
2022-08-19T10:39:43.595Z,54.40
2022-08-19T10:40:46.268Z,54.55
2022-08-19T10:41:49.308Z,53.87
2022-08-19T10:42:51.891Z,54.47
2022-08-19T10:43:55.472Z,54.31
2022-08-19T10:44:58.212Z,53.63
2022-08-19T10:46:00.115Z,54.02
2022-08-19T10:47:03.570Z,54.73
2022-08-19T10:48:05.371Z,54.05
2022-08-19T10:49:08.001Z,54.52
2022-08-19T10:50:28.985Z,54.28
2022-08-19T10:51:50.733Z,54.27
2022-08-19T10:52:52.349Z,54.40
2022-08-19T10:53:59.027Z,54.19
2022-08-19T10:55:19.134Z,53.94
2022-08-19T10:56:39.320Z,53.95
2022-08-19T10:59:05.865Z,54.17
2022-08-19T11:00:08.597Z,54.33
2022-08-19T11:01:15.970Z,54.39
2022-08-19T11:02:18.616Z,53.67
2022-08-19T11:03:20.255Z,53.61
2022-08-19T11:04:23.368Z,53.78
2022-08-19T11:05:31.397Z,54.13
2022-08-19T11:06:44.387Z,53.79
2022-08-19T11:07:46.483Z,53.51
2022-08-19T11:08:49.189Z,53.76
2022-08-19T11:09:55.812Z,53.55
2022-08-19T11:11:03.698Z,53.52
2022-08-19T11:12:06.941Z,53.67
2022-08-19T11:13:09.975Z,53.55
2022-08-19T11:14:15.852Z,53.51
2022-08-19T11:15:17.605Z,53.81
2022-08-19T11:16:22.722Z,53.34
2022-08-19T11:17:24.420Z,53.08
2022-08-19T11:18:27.354Z,52.67
2022-08-19T11:19:28.978Z,52.48
2022-08-19T11:20:32.319Z,52.86
2022-08-19T11:21:41.784Z,52.64
2022-08-19T11:22:43.672Z,52.74
2022-08-19T11:23:48.468Z,52.47
2022-08-19T11:24:50.236Z,51.95
2022-08-19T11:25:54.054Z,52.57
2022-08-19T11:27:03.504Z,51.97
2022-08-19T11:28:06.829Z,52.40
2022-08-19T11:29:12.376Z,52.14
2022-08-19T11:30:16.321Z,51.85
2022-08-19T11:31:20.842Z,51.56
2022-08-19T11:32:23.851Z,51.17
2022-08-19T11:33:27.225Z,51.08
2022-08-19T11:34:30.566Z,51.16
2022-08-19T11:35:33.856Z,50.80
2022-08-19T11:36:39.725Z,50.66
2022-08-19T11:37:41.629Z,50.28
2022-08-19T11:38:44.502Z,50.86
2022-08-19T11:39:51.357Z,50.40
2022-08-19T11:40:57.230Z,50.95
2022-08-19T11:42:00.928Z,50.74
2022-08-19T11:43:02.531Z,50.61
2022-08-19T11:44:05.719Z,50.06
2022-08-19T11:45:10.022Z,50.35
2022-08-19T11:46:16.244Z,49.89
2022-08-19T11:47:18.038Z,50.19
2022-08-19T11:48:23.294Z,49.68
2022-08-19T11:49:25.031Z,49.89
2022-08-19T11:50:27.645Z,50.03
2022-08-19T11:51:30.673Z,49.30
2022-08-19T11:52:33.251Z,49.85
2022-08-19T11:53:35.817Z,49.29
2022-08-19T11:54:38.519Z,49.33
2022-08-19T11:55:43.384Z,48.98
2022-08-19T11:56:48.655Z,49.43
2022-08-19T11:57:50.568Z,49.02
2022-08-19T11:58:54.150Z,48.44
2022-08-19T11:59:55.893Z,48.50
2022-08-19T12:01:00.247Z,48.28
2022-08-19T12:02:02.006Z,48.59
2022-08-19T12:03:04.832Z,48.45
2022-08-19T12:04:06.583Z,48.04
2022-08-19T12:05:12.631Z,48.24
2022-08-19T12:06:17.594Z,48.41
2022-08-19T12:07:20.228Z,48.18
2022-08-19T12:08:21.804Z,48.40
2022-08-19T12:09:24.375Z,48.51
2022-08-19T12:10:26.643Z,48.55
2022-08-19T12:11:29.313Z,48.54
2022-08-19T12:12:38.848Z,48.53
2022-08-19T12:13:45.184Z,48.14
2022-08-19T12:14:48.423Z,48.26
2022-08-19T12:15:50.834Z,47.90
2022-08-19T12:16:55.169Z,47.43
2022-08-19T12:17:58.016Z,47.56
2022-08-19T12:19:04.617Z,47.42
2022-08-19T12:20:07.794Z,47.46
2022-08-19T12:21:11.867Z,47.53
2022-08-19T12:22:13.509Z,47.50
2022-08-19T12:23:16.089Z,47.77
2022-08-19T12:24:23.786Z,47.73
2022-08-19T12:25:26.430Z,48.05
2022-08-19T12:26:29.603Z,48.33
2022-08-19T12:27:40.158Z,48.38
2022-08-19T12:28:44.650Z,48.43
2022-08-19T12:29:47.244Z,49.03
2022-08-19T12:30:50.957Z,48.93
2022-08-19T12:31:55.108Z,48.94
2022-08-19T12:32:56.696Z,48.48
2022-08-19T12:34:01.656Z,48.47
2022-08-19T12:35:07.667Z,48.08
2022-08-19T12:36:12.562Z,47.92
2022-08-19T12:37:15.649Z,47.87
2022-08-19T12:38:17.316Z,47.69
2022-08-19T12:39:19.963Z,47.64
2022-08-19T12:40:21.982Z,47.52
2022-08-19T12:41:24.933Z,47.24
2022-08-19T12:42:26.660Z,47.13
2022-08-19T12:43:31.234Z,46.67
2022-08-19T12:44:33.777Z,46.23
2022-08-19T12:45:37.136Z,46.50
2022-08-19T12:46:39.292Z,46.43
2022-08-19T12:47:45.380Z,45.96
2022-08-19T12:48:51.084Z,45.50
2022-08-19T12:49:57.400Z,45.44
2022-08-19T12:50:59.081Z,45.76
2022-08-19T12:52:02.292Z,45.29
2022-08-19T12:53:04.887Z,45.57
2022-08-19T12:54:07.455Z,45.36
2022-08-19T12:55:11.511Z,45.47
2022-08-19T12:56:15.246Z,45.60
2022-08-19T12:57:17.821Z,45.91
2022-08-19T12:58:19.493Z,45.84
2022-08-19T12:59:23.153Z,46.16
2022-08-19T13:00:24.779Z,46.02
2022-08-19T13:01:28.666Z,45.80
2022-08-19T13:02:38.586Z,46.24
2022-08-19T13:03:43.959Z,46.03
2022-08-19T13:04:45.591Z,46.03
2022-08-19T13:05:48.300Z,45.80
2022-08-19T13:06:51.283Z,45.64
2022-08-19T13:07:56.850Z,45.55
2022-08-19T13:08:59.859Z,45.19
2022-08-19T13:10:01.808Z,45.36
2022-08-19T13:11:11.828Z,45.08
2022-08-19T13:12:14.289Z,45.09
2022-08-19T13:13:17.175Z,44.65
2022-08-19T13:14:19.827Z,44.45
2022-08-19T13:15:24.381Z,44.41
2022-08-19T13:16:28.409Z,44.15
2022-08-19T13:17:31.119Z,44.48
2022-08-19T13:18:32.956Z,44.42
2022-08-19T13:19:38.543Z,44.66
2022-08-19T13:20:41.633Z,44.11
2022-08-19T13:21:45.015Z,43.90
2022-08-19T13:22:49.226Z,44.19
2022-08-19T13:23:52.734Z,43.97
2022-08-19T13:24:54.424Z,44.30
2022-08-19T13:26:00.868Z,44.40
2022-08-19T13:27:02.476Z,44.23
2022-08-19T13:28:07.319Z,44.53
2022-08-19T13:29:36.113Z,44.52
2022-08-19T13:30:57.053Z,44.57
2022-08-19T13:32:18.540Z,44.35
2022-08-19T13:33:21.586Z,44.50
2022-08-19T13:34:30.757Z,44.38
2022-08-19T13:35:35.258Z,43.95
2022-08-19T13:36:37.820Z,44.04
2022-08-19T13:37:45.250Z,44.29
2022-08-19T13:38:47.923Z,43.90
2022-08-19T13:39:50.875Z,43.89
2022-08-19T13:40:56.115Z,43.83
2022-08-19T13:41:58.321Z,43.62
2022-08-19T13:43:02.509Z,44.32
2022-08-19T13:44:20.091Z,44.08
2022-08-19T13:45:26.035Z,44.03
2022-08-19T13:46:28.213Z,44.45
2022-08-19T13:47:30.945Z,44.17
2022-08-19T13:48:33.547Z,44.39
2022-08-19T13:49:37.078Z,44.37
2022-08-19T13:50:44.148Z,43.93
2022-08-19T13:51:47.284Z,43.53
2022-08-19T13:52:50.403Z,43.63
2022-08-19T13:53:52.420Z,43.51
2022-08-19T13:54:55.228Z,43.54
2022-08-19T13:55:58.300Z,43.72
2022-08-19T13:56:59.960Z,43.40
2022-08-19T13:58:03.692Z,42.65
2022-08-19T13:59:05.345Z,42.69
2022-08-19T14:00:11.113Z,42.67
2022-08-19T14:01:21.398Z,42.65
2022-08-19T14:02:27.277Z,42.35
2022-08-19T14:03:29.995Z,42.10
2022-08-19T14:04:31.625Z,42.30